Dades meteomassalio
Diari Summary for Marc 6, 2017 Units:  Metric    English   Both
« Previous Day
Next Day »
Diari Semanal Mensual Anual Personalitzat
  Maxima: Minima: Mijana:
Temperatura: 19.8 °C 8.1 °C 14.1 °C
Rosada: 11.3 °C 3.8 °C 7.5 °C
Humitat: 91 % 39 % 67 %
Velocitat del vent: 61.1 km/h 0.0 km/h 21.7 km/h
Racha vent: 61.1 km/h - -
Vent:- - NW
Pressio: 1024.6 hPa 1018.8 hPa -
Pluja: 0.0 mm    
Historical Graphs
 
 
Tabular Data for Marc 6, 2017
Time Temperature Dew Point Pressure Wind Wind Speed Wind Gust Humidity Rainfall Rate (Hourly) solar Conditions
00:00 9.7 °C 7.8 °C 1020.5 hPa Calm     88 % 0.0 mm 0.0 W/m2 CLR
00:05 9.7 °C 7.8 °C 1020.5 hPa Calm     88 % 0.0 mm 0.0 W/m2 CLR
00:10 9.6 °C 7.7 °C 1020.5 hPa Calm     88 % 0.0 mm 0.0 W/m2 CLR
00:15 9.6 °C 7.9 °C 1020.5 hPa Calm     89 % 0.0 mm 0.0 W/m2 CLR
00:20 9.6 °C 7.9 °C 1020.5 hPa Calm     89 % 0.0 mm 0.0 W/m2 CLR
00:25 9.6 °C 7.9 °C 1020.5 hPa Calm     89 % 0.0 mm 0.0 W/m2 CLR
00:30 9.6 °C 7.8 °C 1020.5 hPa Calm     89 % 0.0 mm 0.0 W/m2 CLR
00:35 9.6 °C 7.8 °C 1020.2 hPa Calm     89 % 0.0 mm 0.0 W/m2 CLR
00:40 9.5 °C 7.8 °C 1020.2 hPa Calm     89 % 0.0 mm 0.0 W/m2 CLR
00:45 9.4 °C 7.7 °C 1020.2 hPa Calm     89 % 0.0 mm 0.0 W/m2 CLR
00:50 9.4 °C 7.7 °C 1020.2 hPa Calm     89 % 0.0 mm 0.0 W/m2 CLR
00:55 9.4 °C 7.7 °C 1020.2 hPa Calm     89 % 0.0 mm 0.0 W/m2 CLR
01:00 9.4 °C 7.7 °C 1020.2 hPa Calm     89 % 0.0 mm 0.0 W/m2 CLR
01:05 9.3 °C 7.6 °C 1020.2 hPa Calm     89 % 0.0 mm 0.0 W/m2 CLR
01:10 9.2 °C 7.5 °C 1020.2 hPa Calm     89 % 0.0 mm 0.0 W/m2 CLR
01:15 9.2 °C 7.7 °C 1020.2 hPa Calm     90 % 0.0 mm 0.0 W/m2 CLR
01:20 9.3 °C 7.7 °C 1019.9 hPa Calm     90 % 0.0 mm 0.0 W/m2 CLR
01:25 9.3 °C 7.7 °C 1019.9 hPa Calm     90 % 0.0 mm 0.0 W/m2 CLR
01:30 9.2 °C 7.7 °C 1019.9 hPa Calm     90 % 0.0 mm 0.0 W/m2 CLR
01:35 9.2 °C 7.7 °C 1019.9 hPa Calm     90 % 0.0 mm 0.0 W/m2 CLR
01:40 9.2 °C 7.7 °C 1019.9 hPa Calm     90 % 0.0 mm 0.0 W/m2 CLR
01:45 9.2 °C 7.7 °C 1019.9 hPa Calm     90 % 0.0 mm 0.0 W/m2 CLR
01:50 9.2 °C 7.7 °C 1019.9 hPa Calm     90 % 0.0 mm 0.0 W/m2 CLR
01:55 9.2 °C 7.6 °C 1019.9 hPa Calm     90 % 0.0 mm 0.0 W/m2 CLR
02:00 9.2 °C 7.8 °C 1019.9 hPa Calm     91 % 0.0 mm 0.0 W/m2 CLR
02:05 9.3 °C 7.9 °C 1019.9 hPa Calm     91 % 0.0 mm 0.0 W/m2 CLR
02:10 9.4 °C 7.8 °C 1019.5 hPa Calm     90 % 0.0 mm 0.0 W/m2 CLR
02:15 9.4 °C 7.9 °C 1019.5 hPa Calm     90 % 0.0 mm 0.0 W/m2 CLR
02:20 9.4 °C 7.9 °C 1019.5 hPa Calm     90 % 0.0 mm 0.0 W/m2 CLR
02:25 9.4 °C 7.8 °C 1019.5 hPa Calm     90 % 0.0 mm 0.0 W/m2 CLR
02:30 9.4 °C 7.8 °C 1019.5 hPa Calm     90 % 0.0 mm 0.0 W/m2 CLR
02:35 9.4 °C 7.9 °C 1019.5 hPa Calm     90 % 0.0 mm 0.0 W/m2 CLR
02:40 9.5 °C 7.9 °C 1019.5 hPa Calm     90 % 0.0 mm 0.0 W/m2 CLR
02:45 9.6 °C 8.0 °C 1019.5 hPa Calm     90 % 0.0 mm 0.0 W/m2 CLR
02:50 9.5 °C 7.9 °C 1019.5 hPa Calm     90 % 0.0 mm 0.0 W/m2 CLR
02:55 9.4 °C 7.8 °C 1019.5 hPa Calm     90 % 0.0 mm 0.0 W/m2 CLR
03:00 9.4 °C 7.9 °C 1019.5 hPa WSW 5.6 km/h 5.6 km/h 90 % 0.0 mm 0.0 W/m2 CLR
03:05 9.7 °C 8.1 °C 1019.5 hPa Calm     90 % 0.0 mm 0.0 W/m2 CLR
03:10 10.0 °C 8.4 °C 1019.5 hPa Calm     90 % 0.0 mm 0.0 W/m2 CLR
03:15 10.2 °C 8.4 °C 1019.5 hPa Calm     89 % 0.0 mm 0.0 W/m2 CLR
03:20 10.1 °C 8.2 °C 1019.5 hPa Calm     88 % 0.0 mm 0.0 W/m2 CLR
03:25 10.1 °C 8.2 °C 1019.2 hPa Calm     88 % 0.0 mm 0.0 W/m2 CLR
03:30 9.9 °C 8.1 °C 1019.2 hPa Calm     88 % 0.0 mm 0.0 W/m2 CLR
03:35 9.9 °C 8.0 °C 1019.2 hPa Calm     88 % 0.0 mm 0.0 W/m2 CLR
03:40 9.8 °C 7.9 °C 1019.2 hPa Calm     88 % 0.0 mm 0.0 W/m2 CLR
03:45 9.9 °C 8.2 °C 1019.2 hPa Calm     89 % 0.0 mm 0.0 W/m2 CLR
03:50 10.1 °C 8.2 °C 1019.2 hPa Calm     88 % 0.0 mm 0.0 W/m2 CLR
03:56 10.0 °C 8.1 °C 1018.8 hPa WSW 7.4 km/h 7.4 km/h 88 % 0.0 mm 0.0 W/m2 CLR
04:01 9.8 °C 7.7 °C 1018.8 hPa WSW 5.6 km/h 5.6 km/h 87 % 0.0 mm 0.0 W/m2 CLR
04:06 9.8 °C 7.9 °C 1018.8 hPa Calm     88 % 0.0 mm 0.0 W/m2 CLR
04:11 10.2 °C 8.3 °C 1018.8 hPa Calm     88 % 0.0 mm 0.0 W/m2 CLR
04:16 10.4 °C 8.4 °C 1018.8 hPa Calm     87 % 0.0 mm 0.0 W/m2 CLR
04:21 10.5 °C 8.3 °C 1018.8 hPa Calm     86 % 0.0 mm 0.0 W/m2 CLR
04:26 10.4 °C 8.2 °C 1018.8 hPa Calm     86 % 0.0 mm 0.0 W/m2 CLR
04:31 10.4 °C 8.2 °C 1018.8 hPa Calm     86 % 0.0 mm 0.0 W/m2 CLR
04:36 10.6 °C 8.4 °C 1018.8 hPa WSW 6.4 km/h 6.4 km/h 86 % 0.0 mm 0.0 W/m2 CLR
04:41 10.7 °C 8.3 °C 1018.8 hPa WSW 5.6 km/h 5.6 km/h 85 % 0.0 mm 0.0 W/m2 CLR
04:46 10.3 °C 7.7 °C 1018.8 hPa WSW 5.6 km/h 5.6 km/h 84 % 0.0 mm 0.0 W/m2 CLR
04:51 9.8 °C 7.4 °C 1018.8 hPa SW 5.6 km/h 5.6 km/h 85 % 0.0 mm 0.0 W/m2 CLR
04:56 9.3 °C 7.1 °C 1018.8 hPa Calm     86 % 0.0 mm 0.0 W/m2 CLR
05:01 9.2 °C 7.2 °C 1018.8 hPa Calm     87 % 0.0 mm 0.0 W/m2 CLR
05:06 9.0 °C 7.1 °C 1018.8 hPa Calm     88 % 0.0 mm 0.0 W/m2 CLR
05:11 8.8 °C 6.9 °C 1018.8 hPa Calm     88 % 0.0 mm 0.0 W/m2 CLR
05:16 8.9 °C 7.2 °C 1018.8 hPa Calm     89 % 0.0 mm 0.0 W/m2 CLR
05:21 9.1 °C 7.3 °C 1018.8 hPa Calm     89 % 0.0 mm 0.0 W/m2 CLR
05:26 8.9 °C 7.1 °C 1018.8 hPa Calm     88 % 0.0 mm 0.0 W/m2 CLR
05:31 8.8 °C 6.9 °C 1018.8 hPa Calm     88 % 0.0 mm 0.0 W/m2 CLR
05:36 8.7 °C 7.0 °C 1018.8 hPa Calm     89 % 0.0 mm 0.0 W/m2 CLR
05:41 8.8 °C 7.1 °C 1018.8 hPa Calm     89 % 0.0 mm 0.0 W/m2 CLR
05:46 8.8 °C 7.1 °C 1018.8 hPa Calm     89 % 0.0 mm 0.0 W/m2 CLR
05:51 8.8 °C 7.1 °C 1018.8 hPa Calm     89 % 0.0 mm 0.0 W/m2 CLR
05:56 8.8 °C 7.1 °C 1018.8 hPa Calm     89 % 0.0 mm 0.0 W/m2 CLR
06:01 9.0 °C 7.1 °C 1018.8 hPa Calm     88 % 0.0 mm 0.0 W/m2 CLR
06:06 9.1 °C 7.3 °C 1018.8 hPa Calm     89 % 0.0 mm 0.0 W/m2 CLR
06:11 9.1 °C 7.2 °C 1018.8 hPa Calm     88 % 0.0 mm 0.0 W/m2 CLR
06:16 9.1 °C 7.1 °C 1018.8 hPa Calm     87 % 0.0 mm 0.0 W/m2 CLR
06:21 9.1 °C 7.1 °C 1018.8 hPa Calm     87 % 0.0 mm 0.0 W/m2 CLR
06:26 9.2 °C 7.1 °C 1018.8 hPa Calm     87 % 0.0 mm 0.0 W/m2 CLR
06:31 8.8 °C 6.6 °C 1018.8 hPa Calm     86 % 0.0 mm 0.0 W/m2 CLR
06:36 8.6 °C 6.5 °C 1018.8 hPa Calm     87 % 0.0 mm 0.0 W/m2 CLR
06:41 8.4 °C 6.6 °C 1019.2 hPa Calm     88 % 0.0 mm 0.0 W/m2 CLR
06:46 8.4 °C 6.5 °C 1019.2 hPa Calm     88 % 0.0 mm 0.0 W/m2 CLR
06:51 8.4 °C 6.7 °C 1019.2 hPa Calm     89 % 0.0 mm 0.0 W/m2 CLR
06:56 8.4 °C 6.7 °C 1019.2 hPa Calm     89 % 0.0 mm 0.0 W/m2 CLR
07:01 8.2 °C 6.3 °C 1019.2 hPa Calm     88 % 0.0 mm 0.0 W/m2 CLR
07:06 8.1 °C 6.2 °C 1019.2 hPa Calm     88 % 0.0 mm 0.0 W/m2 CLR
07:11 8.1 °C 6.4 °C 1019.2 hPa Calm     89 % 0.0 mm 0.0 W/m2 CLR
07:16 8.6 °C 7.1 °C 1019.2 hPa WNW 8.0 km/h 8.0 km/h 90 % 0.0 mm 0.0 W/m2 OVC
07:21 9.7 °C 7.8 °C 1019.2 hPa West 7.4 km/h 7.4 km/h 88 % 0.0 mm 0.0 W/m2 OVC
07:26 10.6 °C 7.8 °C 1018.8 hPa West 12.9 km/h 12.9 km/h 83 % 0.0 mm 0.0 W/m2 OVC
07:31 11.1 °C 7.9 °C 1019.2 hPa WNW 11.1 km/h 11.1 km/h 81 % 0.0 mm 5.0 W/m2 OVC
07:36 11.7 °C 8.2 °C 1019.2 hPa West 11.1 km/h 11.1 km/h 79 % 0.0 mm 14.0 W/m2 BKN
07:41 12.2 °C 8.3 °C 1019.2 hPa WNW 16.7 km/h 16.7 km/h 77 % 0.0 mm 23.0 W/m2 BKN
07:46 12.3 °C 8.4 °C 1019.2 hPa WNW 18.5 km/h 18.5 km/h 77 % 0.0 mm 28.0 W/m2 BKN
07:51 12.6 °C 8.4 °C 1019.2 hPa WNW 18.5 km/h 18.5 km/h 76 % 0.0 mm 33.0 W/m2 BKN
07:56 12.8 °C 8.5 °C 1019.2 hPa WNW 9.7 km/h 9.7 km/h 75 % 0.0 mm 42.0 W/m2 BKN
08:01 13.0 °C 8.4 °C 1019.2 hPa NW 9.7 km/h 9.7 km/h 74 % 0.0 mm 51.0 W/m2 SCT
08:06 13.1 °C 8.6 °C 1018.8 hPa WNW 11.1 km/h 11.1 km/h 74 % 0.0 mm 58.0 W/m2 SCT
08:11 13.3 °C 8.6 °C 1018.8 hPa WNW 22.2 km/h 22.2 km/h 73 % 0.0 mm 77.0 W/m2 FEW
08:16 13.6 °C 8.8 °C 1018.8 hPa WNW 22.2 km/h 22.2 km/h 73 % 0.0 mm 91.0 W/m2 CLR
08:21 13.7 °C 8.8 °C 1018.8 hPa WNW 27.4 km/h 27.4 km/h 72 % 0.0 mm 109.0 W/m2 CLR
08:26 13.9 °C 8.8 °C 1019.2 hPa WNW 25.9 km/h 25.9 km/h 71 % 0.0 mm 113.0 W/m2 CLR
08:31 14.1 °C 8.7 °C 1018.8 hPa NW 20.4 km/h 20.4 km/h 70 % 0.0 mm 111.0 W/m2 CLR
08:36 14.3 °C 8.9 °C 1019.2 hPa WNW 22.2 km/h 22.2 km/h 70 % 0.0 mm 125.0 W/m2 CLR
08:41 14.3 °C 8.9 °C 1019.2 hPa WNW 16.7 km/h 16.7 km/h 70 % 0.0 mm 134.0 W/m2 CLR
08:46 14.5 °C 9.1 °C 1019.2 hPa NW 18.5 km/h 18.5 km/h 70 % 0.0 mm 149.0 W/m2 CLR
08:51 14.6 °C 9.0 °C 1019.2 hPa WNW 20.4 km/h 20.4 km/h 69 % 0.0 mm 167.0 W/m2 CLR
08:56 14.7 °C 9.1 °C 1019.5 hPa West 18.5 km/h 18.5 km/h 69 % 0.0 mm 181.0 W/m2 CLR
09:01 14.8 °C 9.2 °C 1019.2 hPa WNW 19.3 km/h 19.3 km/h 69 % 0.0 mm 192.0 W/m2 CLR
09:06 14.8 °C 9.0 °C 1019.2 hPa WNW 18.5 km/h 18.5 km/h 68 % 0.0 mm 193.0 W/m2 CLR
09:11 14.9 °C 9.1 °C 1019.2 hPa WNW 20.4 km/h 20.4 km/h 68 % 0.0 mm 193.0 W/m2 CLR
09:16 15.0 °C 9.1 °C 1019.2 hPa WNW 22.2 km/h 22.2 km/h 68 % 0.0 mm 204.0 W/m2 CLR
09:21 15.1 °C 9.2 °C 1019.2 hPa NW 31.5 km/h 31.5 km/h 68 % 0.0 mm 227.0 W/m2 CLR
09:26 15.2 °C 9.3 °C 1019.5 hPa NW 24.1 km/h 24.1 km/h 68 % 0.0 mm 183.0 W/m2 CLR
09:31 15.2 °C 9.3 °C 1019.5 hPa NW 25.9 km/h 25.9 km/h 68 % 0.0 mm 202.0 W/m2 CLR
09:36 15.2 °C 9.1 °C 1019.2 hPa WNW 29.6 km/h 29.6 km/h 67 % 0.0 mm 244.0 W/m2 CLR
09:41 15.2 °C 9.1 °C 1019.2 hPa NW 40.7 km/h 40.7 km/h 67 % 0.0 mm 160.0 W/m2 CLR
09:46 15.2 °C 9.3 °C 1019.2 hPa WNW 25.9 km/h 25.9 km/h 68 % 0.0 mm 255.0 W/m2 CLR
09:51 15.4 °C 9.3 °C 1019.5 hPa WNW 33.3 km/h 33.3 km/h 67 % 0.0 mm 278.0 W/m2 CLR
09:56 15.6 °C 9.4 °C 1019.2 hPa NW 38.9 km/h 38.9 km/h 67 % 0.0 mm 376.0 W/m2 CLR
10:01 15.8 °C 9.2 °C 1019.5 hPa NW 42.6 km/h 42.6 km/h 65 % 0.0 mm 348.0 W/m2 CLR
10:06 15.9 °C 9.4 °C 1019.5 hPa NW 44.4 km/h 44.4 km/h 65 % 0.0 mm 373.0 W/m2 CLR
10:11 16.1 °C 9.5 °C 1019.5 hPa NW 46.3 km/h 46.3 km/h 65 % 0.0 mm 457.0 W/m2 CLR
10:16 16.2 °C 9.4 °C 1019.5 hPa NW 35.2 km/h 35.2 km/h 64 % 0.0 mm 406.0 W/m2 CLR
10:21 16.4 °C 9.6 °C 1019.5 hPa WNW 38.9 km/h 38.9 km/h 64 % 0.0 mm 487.0 W/m2 CLR
10:26 16.5 °C 9.4 °C 1019.5 hPa NW 42.6 km/h 42.6 km/h 63 % 0.0 mm 439.0 W/m2 CLR
10:31 16.6 °C 9.8 °C 1019.2 hPa NW 35.2 km/h 35.2 km/h 64 % 0.0 mm 425.0 W/m2 CLR
10:37 16.8 °C 9.7 °C 1019.5 hPa NW 42.6 km/h 42.6 km/h 63 % 0.0 mm 490.0 W/m2 CLR
10:42 16.9 °C 9.8 °C 1019.5 hPa NW 42.6 km/h 42.6 km/h 63 % 0.0 mm 489.0 W/m2 CLR
10:47 17.0 °C 9.7 °C 1019.5 hPa NW 42.6 km/h 42.6 km/h 62 % 0.0 mm 455.0 W/m2 CLR
10:52 17.2 °C 9.8 °C 1019.5 hPa NW 33.8 km/h 33.8 km/h 62 % 0.0 mm 468.0 W/m2 CLR
10:57 17.3 °C 9.7 °C 1019.9 hPa WNW 46.3 km/h 46.3 km/h 61 % 0.0 mm 418.0 W/m2 CLR
11:02 17.5 °C 9.9 °C 1019.9 hPa WNW 35.4 km/h 35.4 km/h 61 % 0.0 mm 527.0 W/m2 CLR
11:07 17.5 °C 9.7 °C 1019.9 hPa NW 46.7 km/h 46.7 km/h 60 % 0.0 mm 580.0 W/m2 CLR
11:12 17.7 °C 10.1 °C 1019.9 hPa NNW 41.8 km/h 41.8 km/h 61 % 0.0 mm 573.0 W/m2 CLR
11:17 17.7 °C 9.8 °C 1019.9 hPa NW 50.0 km/h 50.0 km/h 60 % 0.0 mm 585.0 W/m2 CLR
11:22 17.8 °C 9.7 °C 1019.9 hPa NW 44.4 km/h 44.4 km/h 59 % 0.0 mm 584.0 W/m2 CLR
11:27 17.8 °C 9.7 °C 1019.9 hPa NW 46.3 km/h 46.3 km/h 59 % 0.0 mm 580.0 W/m2 CLR
11:32 17.8 °C 9.9 °C 1020.2 hPa NW 46.3 km/h 46.3 km/h 60 % 0.0 mm 589.0 W/m2 CLR
11:37 17.8 °C 9.9 °C 1019.9 hPa NNW 41.8 km/h 41.8 km/h 60 % 0.0 mm 622.0 W/m2 CLR
11:42 18.1 °C 10.2 °C 1019.9 hPa WNW 37.0 km/h 37.0 km/h 60 % 0.0 mm 598.0 W/m2 CLR
11:47 18.1 °C 9.9 °C 1019.9 hPa WNW 48.1 km/h 48.1 km/h 59 % 0.0 mm 619.0 W/m2 CLR
11:52 18.3 °C 10.4 °C 1019.9 hPa NW 31.5 km/h 31.5 km/h 60 % 0.0 mm 652.0 W/m2 CLR
11:57 18.3 °C 10.2 °C 1019.9 hPa NW 48.1 km/h 48.1 km/h 59 % 0.0 mm 650.0 W/m2 CLR
12:02 18.4 °C 10.0 °C 1019.9 hPa NW 40.2 km/h 40.2 km/h 58 % 0.0 mm 661.0 W/m2 CLR
12:07 18.5 °C 10.1 °C 1019.9 hPa NW 41.8 km/h 41.8 km/h 58 % 0.0 mm 647.0 W/m2 CLR
12:12 18.6 °C 10.2 °C 1019.9 hPa NW 50.0 km/h 50.0 km/h 58 % 0.0 mm 652.0 W/m2 CLR
12:17 18.6 °C 10.2 °C 1019.9 hPa WNW 46.3 km/h 46.3 km/h 58 % 0.0 mm 673.0 W/m2 CLR
12:22 18.8 °C 10.3 °C 1019.9 hPa WNW 33.3 km/h 33.3 km/h 58 % 0.0 mm 673.0 W/m2 CLR
12:28 18.9 °C 10.2 °C 1019.9 hPa NW 42.6 km/h 42.6 km/h 57 % 0.0 mm 680.0 W/m2 CLR
12:33 19.1 °C 10.9 °C 1020.2 hPa NW 48.1 km/h 48.1 km/h 59 % 0.0 mm 679.0 W/m2 CLR
12:38 18.9 °C 11.0 °C 1019.9 hPa NNW 38.9 km/h 38.9 km/h 60 % 0.0 mm 689.0 W/m2 CLR
12:43 18.9 °C 10.5 °C 1020.2 hPa NW 42.6 km/h 42.6 km/h 58 % 0.0 mm 687.0 W/m2 CLR
12:48 18.9 °C 9.9 °C 1020.2 hPa NW 51.8 km/h 51.8 km/h 56 % 0.0 mm 701.0 W/m2 CLR
12:53 18.9 °C 9.9 °C 1020.2 hPa NNW 55.5 km/h 55.5 km/h 56 % 0.0 mm 705.0 W/m2 CLR
12:58 18.8 °C 10.1 °C 1019.9 hPa NW 38.6 km/h 38.6 km/h 57 % 0.0 mm 703.0 W/m2 CLR
13:03 19.2 °C 10.8 °C 1020.5 hPa NNW 44.4 km/h 44.4 km/h 58 % 0.0 mm 686.0 W/m2 CLR
13:08 19.1 °C 10.4 °C 1020.2 hPa NW 61.1 km/h 61.1 km/h 57 % 0.0 mm 737.0 W/m2 CLR
13:13 19.1 °C 10.3 °C 1020.5 hPa NW 53.7 km/h 53.7 km/h 57 % 0.0 mm 773.0 W/m2 CLR
13:18 18.9 °C 10.5 °C 1019.9 hPa NW 37.0 km/h 37.0 km/h 58 % 0.0 mm 279.0 W/m2 CLR
13:23 19.1 °C 10.6 °C 1019.9 hPa NNW 42.6 km/h 42.6 km/h 58 % 0.0 mm 745.0 W/m2 CLR
13:28 19.2 °C 11.3 °C 1019.9 hPa NW 27.8 km/h 27.8 km/h 60 % 0.0 mm 758.0 W/m2 CLR
13:33 19.4 °C 10.4 °C 1019.9 hPa WNW 35.2 km/h 35.2 km/h 56 % 0.0 mm 724.0 W/m2 CLR
13:38 19.2 °C 10.5 °C 1019.9 hPa NNW 40.7 km/h 40.7 km/h 57 % 0.0 mm 148.0 W/m2 CLR
13:43 19.3 °C 10.8 °C 1019.9 hPa NW 42.6 km/h 42.6 km/h 58 % 0.0 mm 686.0 W/m2 CLR
13:48 19.2 °C 10.2 °C 1020.2 hPa NW 37.0 km/h 37.0 km/h 56 % 0.0 mm 98.0 W/m2 CLR
13:53 18.9 °C 10.2 °C 1019.9 hPa NNW 40.2 km/h 40.2 km/h 57 % 0.0 mm 700.0 W/m2 CLR
13:58 19.2 °C 10.4 °C 1019.9 hPa NW 40.7 km/h 40.7 km/h 57 % 0.0 mm 738.0 W/m2 CLR
14:03 19.6 °C 10.8 °C 1020.2 hPa NW 42.6 km/h 42.6 km/h 57 % 0.0 mm 789.0 W/m2 CLR
14:08 19.7 °C 10.4 °C 1020.2 hPa NW 33.3 km/h 33.3 km/h 55 % 0.0 mm 766.0 W/m2 CLR
14:13 19.7 °C 9.9 °C 1019.9 hPa NW 55.5 km/h 55.5 km/h 53 % 0.0 mm 809.0 W/m2 CLR
14:18 19.8 °C 10.5 °C 1020.2 hPa NNW 49.9 km/h 49.9 km/h 55 % 0.0 mm 789.0 W/m2 CLR
14:23 19.7 °C 10.1 °C 1020.5 hPa NNW 40.7 km/h 40.7 km/h 54 % 0.0 mm 751.0 W/m2 CLR
14:28 19.4 °C 9.9 °C 1020.2 hPa NNW 42.6 km/h 42.6 km/h 54 % 0.0 mm 642.0 W/m2 CLR
14:33 19.3 °C 9.2 °C 1020.2 hPa NNW 57.4 km/h 57.4 km/h 52 % 0.0 mm 274.0 W/m2 CLR
14:38 19.2 °C 9.6 °C 1020.2 hPa NNW 44.4 km/h 44.4 km/h 54 % 0.0 mm 652.0 W/m2 CLR
14:43 19.2 °C 9.6 °C 1020.2 hPa NW 44.4 km/h 44.4 km/h 54 % 0.0 mm 599.0 W/m2 CLR
14:48 19.4 °C 9.0 °C 1020.5 hPa NNW 57.4 km/h 57.4 km/h 51 % 0.0 mm 534.0 W/m2 CLR
14:53 19.4 °C 9.8 °C 1020.5 hPa NNW 38.9 km/h 38.9 km/h 54 % 0.0 mm 640.0 W/m2 CLR
14:58 19.4 °C 10.1 °C 1020.5 hPa WNW 32.2 km/h 32.2 km/h 55 % 0.0 mm 563.0 W/m2 CLR
15:03 19.6 °C 10.1 °C 1020.5 hPa NNW 33.8 km/h 33.8 km/h 54 % 0.0 mm 506.0 W/m2 CLR
15:08 19.6 °C 8.9 °C 1020.2 hPa NW 46.3 km/h 46.3 km/h 50 % 0.0 mm 524.0 W/m2 CLR
15:13 19.5 °C 9.1 °C 1020.5 hPa NW 42.6 km/h 42.6 km/h 51 % 0.0 mm 497.0 W/m2 CLR
15:18 19.4 °C 9.6 °C 1020.2 hPa NNW 37.0 km/h 37.0 km/h 53 % 0.0 mm 489.0 W/m2 CLR
15:23 19.4 °C 9.3 °C 1020.2 hPa NW 44.4 km/h 44.4 km/h 52 % 0.0 mm 406.0 W/m2 CLR
15:28 19.2 °C 9.1 °C 1020.5 hPa NNW 45.1 km/h 45.1 km/h 52 % 0.0 mm 446.0 W/m2 CLR
15:33 19.3 °C 9.5 °C 1020.5 hPa North 37.0 km/h 37.0 km/h 53 % 0.0 mm 489.0 W/m2 CLR
15:38 19.5 °C 9.7 °C 1020.5 hPa NNW 33.3 km/h 33.3 km/h 53 % 0.0 mm 429.0 W/m2 CLR
15:43 19.4 °C 9.3 °C 1020.5 hPa NNW 31.5 km/h 31.5 km/h 52 % 0.0 mm 413.0 W/m2 CLR
15:48 19.3 °C 9.8 °C 1020.5 hPa North 25.9 km/h 25.9 km/h 54 % 0.0 mm 218.0 W/m2 CLR
15:53 19.3 °C 8.6 °C 1020.9 hPa NNW 38.9 km/h 38.9 km/h 50 % 0.0 mm 450.0 W/m2 CLR
15:58 19.3 °C 8.3 °C 1020.9 hPa NNW 32.2 km/h 32.2 km/h 49 % 0.0 mm 332.0 W/m2 CLR
16:03 19.4 °C 8.2 °C 1020.9 hPa NNW 38.6 km/h 38.6 km/h 48 % 0.0 mm 455.0 W/m2 CLR
16:08 19.6 °C 7.7 °C 1021.2 hPa NNW 38.9 km/h 38.9 km/h 46 % 0.0 mm 445.0 W/m2 CLR
16:13 19.5 °C 7.2 °C 1020.9 hPa NNW 44.4 km/h 44.4 km/h 45 % 0.0 mm 446.0 W/m2 CLR
16:18 19.5 °C 6.9 °C 1020.9 hPa NNW 40.7 km/h 40.7 km/h 44 % 0.0 mm 420.0 W/m2 CLR
16:23 19.4 °C 6.9 °C 1020.9 hPa NNW 48.1 km/h 48.1 km/h 44 % 0.0 mm 330.0 W/m2 CLR
16:28 19.4 °C 7.4 °C 1020.9 hPa NNW 40.2 km/h 40.2 km/h 46 % 0.0 mm 394.0 W/m2 CLR
16:33 19.4 °C 7.2 °C 1020.9 hPa NNW 43.4 km/h 43.4 km/h 45 % 0.0 mm 410.0 W/m2 CLR
16:38 19.4 °C 7.2 °C 1021.2 hPa NNW 31.5 km/h 31.5 km/h 45 % 0.0 mm 339.0 W/m2 CLR
16:43 19.5 °C 7.2 °C 1020.9 hPa NNW 37.0 km/h 37.0 km/h 45 % 0.0 mm 346.0 W/m2 CLR
16:48 19.4 °C 7.2 °C 1021.2 hPa NNW 37.0 km/h 37.0 km/h 45 % 0.0 mm 285.0 W/m2 CLR
16:53 19.3 °C 6.7 °C 1021.2 hPa NNW 46.3 km/h 46.3 km/h 44 % 0.0 mm 223.0 W/m2 CLR
16:58 19.3 °C 7.1 °C 1021.2 hPa NNW 40.7 km/h 40.7 km/h 45 % 0.0 mm 366.0 W/m2 CLR
17:03 19.4 °C 6.5 °C 1021.2 hPa NW 35.2 km/h 35.2 km/h 43 % 0.0 mm 279.0 W/m2 CLR
17:08 19.3 °C 6.1 °C 1021.6 hPa NNW 38.9 km/h 38.9 km/h 42 % 0.0 mm 257.0 W/m2 CLR
17:13 19.3 °C 6.1 °C 1021.2 hPa NW 30.6 km/h 30.6 km/h 42 % 0.0 mm 272.0 W/m2 CLR
17:18 19.3 °C 6.4 °C 1021.6 hPa NNW 38.9 km/h 38.9 km/h 43 % 0.0 mm 267.0 W/m2 CLR
17:23 19.2 °C 6.7 °C 1021.6 hPa NW 32.2 km/h 32.2 km/h 44 % 0.0 mm 220.0 W/m2 CLR
17:28 19.2 °C 6.9 °C 1021.2 hPa NNW 29.6 km/h 29.6 km/h 45 % 0.0 mm 221.0 W/m2 CLR
17:33 19.1 °C 7.5 °C 1021.6 hPa NNW 25.9 km/h 25.9 km/h 47 % 0.0 mm 197.0 W/m2 CLR
17:38 18.9 °C 7.4 °C 1021.6 hPa NNW 24.1 km/h 24.1 km/h 47 % 0.0 mm 185.0 W/m2 CLR
17:43 19.0 °C 7.7 °C 1021.6 hPa NW 24.1 km/h 24.1 km/h 48 % 0.0 mm 167.0 W/m2 CLR
17:48 18.9 °C 8.0 °C 1021.6 hPa NNW 24.1 km/h 24.1 km/h 49 % 0.0 mm 155.0 W/m2 CLR
17:53 18.9 °C 7.9 °C 1021.6 hPa North 33.3 km/h 33.3 km/h 49 % 0.0 mm 132.0 W/m2 CLR
17:58 18.8 °C 7.8 °C 1021.6 hPa WNW 27.8 km/h 27.8 km/h 49 % 0.0 mm 113.0 W/m2 CLR
18:03 18.7 °C 5.5 °C 1021.2 hPa North 38.9 km/h 38.9 km/h 42 % 0.0 mm 81.0 W/m2 CLR
18:08 18.6 °C 5.1 °C 1021.6 hPa NW 33.3 km/h 33.3 km/h 41 % 0.0 mm 72.0 W/m2 FEW
18:13 18.4 °C 4.6 °C 1021.6 hPa NW 29.6 km/h 29.6 km/h 40 % 0.0 mm 58.0 W/m2 SCT
18:18 18.3 °C 4.1 °C 1021.6 hPa NW 33.3 km/h 33.3 km/h 39 % 0.0 mm 46.0 W/m2 SCT
18:23 18.2 °C 4.0 °C 1021.6 hPa NNW 29.6 km/h 29.6 km/h 39 % 0.0 mm 35.0 W/m2 BKN
18:28 18.0 °C 3.8 °C 1021.6 hPa North 27.8 km/h 27.8 km/h 39 % 0.0 mm 21.0 W/m2 BKN
18:33 17.8 °C 4.0 °C 1021.9 hPa NW 25.9 km/h 25.9 km/h 40 % 0.0 mm 12.0 W/m2 BKN
18:38 17.6 °C 4.2 °C 1021.9 hPa NNW 29.6 km/h 29.6 km/h 41 % 0.0 mm 9.0 W/m2 BKN
18:43 17.4 °C 4.0 °C 1021.9 hPa NNW 18.5 km/h 18.5 km/h 41 % 0.0 mm 7.0 W/m2 BKN
18:48 17.2 °C 4.8 °C 1022.2 hPa NNW 24.1 km/h 24.1 km/h 44 % 0.0 mm 5.0 W/m2 OVC
18:53 16.9 °C 5.2 °C 1022.2 hPa North 29.6 km/h 29.6 km/h 46 % 0.0 mm 0.0 W/m2 OVC
18:58 16.7 °C 5.3 °C 1022.6 hPa NNW 18.5 km/h 18.5 km/h 47 % 0.0 mm 0.0 W/m2 OVC
19:03 16.4 °C 5.3 °C 1022.2 hPa NNW 24.1 km/h 24.1 km/h 48 % 0.0 mm 0.0 W/m2 CLR
19:04 16.4 °C 5.4 °C 1022.2 hPa NNW 20.4 km/h 20.4 km/h 48 % 0.0 mm 0.0 W/m2 CLR
19:09 16.3 °C 5.2 °C 1022.6 hPa NNW 27.4 km/h 27.4 km/h 48 % 0.0 mm 0.0 W/m2 CLR
19:14 16.2 °C 5.2 °C 1022.6 hPa North 29.0 km/h 29.0 km/h 48 % 0.0 mm 0.0 W/m2 CLR
19:19 16.1 °C 5.1 °C 1022.6 hPa NNW 25.7 km/h 25.7 km/h 48 % 0.0 mm 0.0 W/m2 CLR
19:24 15.9 °C 4.9 °C 1022.6 hPa NNW 29.6 km/h 29.6 km/h 48 % 0.0 mm 0.0 W/m2 CLR
19:29 15.8 °C 4.8 °C 1022.6 hPa NNW 29.6 km/h 29.6 km/h 48 % 0.0 mm 0.0 W/m2 CLR
19:34 15.6 °C 4.9 °C 1022.6 hPa North 19.3 km/h 19.3 km/h 49 % 0.0 mm 0.0 W/m2 CLR
19:39 15.3 °C 4.7 °C 1022.6 hPa NNW 29.6 km/h 29.6 km/h 49 % 0.0 mm 0.0 W/m2 CLR
19:44 15.3 °C 4.6 °C 1022.9 hPa NNW 38.9 km/h 38.9 km/h 49 % 0.0 mm 0.0 W/m2 CLR
19:49 15.3 °C 4.6 °C 1022.9 hPa NNW 25.9 km/h 25.9 km/h 49 % 0.0 mm 0.0 W/m2 CLR
19:54 15.1 °C 4.4 °C 1022.9 hPa NNW 24.1 km/h 24.1 km/h 49 % 0.0 mm 0.0 W/m2 CLR
19:59 14.9 °C 4.6 °C 1022.9 hPa NNW 25.9 km/h 25.9 km/h 50 % 0.0 mm 0.0 W/m2 CLR
20:04 14.8 °C 4.4 °C 1022.9 hPa NNW 18.5 km/h 18.5 km/h 50 % 0.0 mm 0.0 W/m2 CLR
20:09 14.6 °C 4.6 °C 1023.2 hPa NNW 18.5 km/h 18.5 km/h 51 % 0.0 mm 0.0 W/m2 CLR
20:14 14.5 °C 4.5 °C 1023.2 hPa NNW 29.0 km/h 29.0 km/h 51 % 0.0 mm 0.0 W/m2 CLR
20:19 14.4 °C 4.2 °C 1023.2 hPa NNW 25.9 km/h 25.9 km/h 50 % 0.0 mm 0.0 W/m2 CLR
20:24 14.3 °C 4.3 °C 1023.2 hPa NW 25.9 km/h 25.9 km/h 51 % 0.0 mm 0.0 W/m2 CLR
20:29 14.1 °C 4.4 °C 1023.2 hPa WNW 22.2 km/h 22.2 km/h 52 % 0.0 mm 0.0 W/m2 CLR
20:34 13.9 °C 4.4 °C 1023.6 hPa WNW 25.7 km/h 25.7 km/h 53 % 0.0 mm 0.0 W/m2 CLR
20:39 13.8 °C 4.4 °C 1023.6 hPa NNW 24.1 km/h 24.1 km/h 53 % 0.0 mm 0.0 W/m2 CLR
20:44 13.6 °C 4.7 °C 1023.9 hPa WNW 18.5 km/h 18.5 km/h 55 % 0.0 mm 0.0 W/m2 CLR
20:49 13.5 °C 4.6 °C 1023.9 hPa WNW 18.5 km/h 18.5 km/h 55 % 0.0 mm 0.0 W/m2 CLR
20:54 13.4 °C 4.8 °C 1023.9 hPa NW 24.1 km/h 24.1 km/h 56 % 0.0 mm 0.0 W/m2 CLR
20:59 13.4 °C 5.1 °C 1023.9 hPa NW 25.7 km/h 25.7 km/h 57 % 0.0 mm 0.0 W/m2 CLR
21:04 13.6 °C 4.9 °C 1023.9 hPa NNW 27.8 km/h 27.8 km/h 56 % 0.0 mm 0.0 W/m2 CLR
21:09 13.4 °C 5.1 °C 1024.3 hPa NW 14.8 km/h 14.8 km/h 57 % 0.0 mm 0.0 W/m2 CLR
21:14 13.2 °C 5.1 °C 1024.3 hPa NNW 14.8 km/h 14.8 km/h 58 % 0.0 mm 0.0 W/m2 CLR
21:19 13.1 °C 5.2 °C 1024.3 hPa NW 18.5 km/h 18.5 km/h 59 % 0.0 mm 0.0 W/m2 CLR
21:24 12.8 °C 5.0 °C 1024.3 hPa NW 25.9 km/h 25.9 km/h 59 % 0.0 mm 0.0 W/m2 CLR
21:29 12.7 °C 4.7 °C 1024.3 hPa NW 20.4 km/h 20.4 km/h 58 % 0.0 mm 0.0 W/m2 CLR
21:34 12.7 °C 4.9 °C 1024.3 hPa NNW 18.5 km/h 18.5 km/h 59 % 0.0 mm 0.0 W/m2 CLR
21:40 12.6 °C 5.0 °C 1024.3 hPa NW 20.4 km/h 20.4 km/h 60 % 0.0 mm 0.0 W/m2 CLR
21:45 12.4 °C 4.7 °C 1024.3 hPa NNW 22.2 km/h 22.2 km/h 59 % 0.0 mm 0.0 W/m2 CLR
21:50 12.5 °C 4.7 °C 1024.3 hPa NNW 27.8 km/h 27.8 km/h 59 % 0.0 mm 0.0 W/m2 CLR
21:55 12.5 °C 4.7 °C 1024.3 hPa NW 20.9 km/h 20.9 km/h 59 % 0.0 mm 0.0 W/m2 CLR
22:00 12.4 °C 4.8 °C 1024.6 hPa NNW 18.5 km/h 18.5 km/h 60 % 0.0 mm 0.0 W/m2 CLR
22:05 12.2 °C 4.9 °C 1024.3 hPa NNW 18.5 km/h 18.5 km/h 61 % 0.0 mm 0.0 W/m2 CLR
22:10 12.1 °C 4.8 °C 1024.3 hPa NW 16.7 km/h 16.7 km/h 61 % 0.0 mm 0.0 W/m2 CLR
22:15 12.0 °C 4.7 °C 1024.3 hPa NNW 22.2 km/h 22.2 km/h 61 % 0.0 mm 0.0 W/m2 CLR
22:20 12.0 °C 4.9 °C 1024.6 hPa NNW 25.9 km/h 25.9 km/h 62 % 0.0 mm 0.0 W/m2 CLR
22:25 11.9 °C 4.8 °C 1024.6 hPa NNW 18.5 km/h 18.5 km/h 62 % 0.0 mm 0.0 W/m2 CLR
22:30 11.7 °C 4.9 °C 1024.3 hPa NW 18.5 km/h 18.5 km/h 63 % 0.0 mm 0.0 W/m2 CLR
22:35 11.5 °C 4.9 °C 1024.6 hPa NW 20.4 km/h 20.4 km/h 64 % 0.0 mm 0.0 W/m2 CLR
22:40 11.4 °C 5.1 °C 1024.6 hPa WNW 18.5 km/h 18.5 km/h 65 % 0.0 mm 0.0 W/m2 CLR
22:43 11.3 °C 4.9 °C 1024.6 hPa NW 13.0 km/h 13.0 km/h 65 % 0.0 mm 0.0 W/m2 CLR
22:46 11.2 °C 5.1 °C 1024.6 hPa WNW 18.5 km/h 18.5 km/h 66 % 0.0 mm 0.0 W/m2 CLR
22:47 11.1 °C 5.0 °C 1024.6 hPa NW 11.3 km/h 11.3 km/h 66 % 0.0 mm 0.0 W/m2 CLR
22:52 11.1 °C 4.9 °C 1024.6 hPa WNW 16.7 km/h 16.7 km/h 66 % 0.0 mm 0.0 W/m2 CLR
22:57 11.1 °C 5.0 °C 1024.6 hPa WNW 14.8 km/h 14.8 km/h 66 % 0.0 mm 0.0 W/m2 CLR
23:01 11.1 °C 5.0 °C 1024.6 hPa WNW 18.5 km/h 18.5 km/h 66 % 0.0 mm 0.0 W/m2 CLR
23:06 11.0 °C 4.9 °C 1024.6 hPa NW 18.5 km/h 18.5 km/h 66 % 0.0 mm 0.0 W/m2 CLR
23:11 10.9 °C 5.0 °C 1024.6 hPa WNW 18.5 km/h 18.5 km/h 67 % 0.0 mm 0.0 W/m2 CLR
23:16 10.8 °C 4.9 °C 1024.6 hPa WNW 20.4 km/h 20.4 km/h 67 % 0.0 mm 0.0 W/m2 CLR
23:21 10.8 °C 4.7 °C 1024.6 hPa WNW 16.7 km/h 16.7 km/h 66 % 0.0 mm 0.0 W/m2 CLR
23:26 10.8 °C 4.7 °C 1024.3 hPa NW 20.4 km/h 20.4 km/h 66 % 0.0 mm 0.0 W/m2 CLR
23:31 10.9 °C 4.8 °C 1024.6 hPa WNW 18.5 km/h 18.5 km/h 66 % 0.0 mm 0.0 W/m2 CLR
23:36 10.8 °C 4.7 °C 1024.6 hPa WNW 18.5 km/h 18.5 km/h 66 % 0.0 mm 0.0 W/m2 CLR
23:41 10.8 °C 4.7 °C 1024.6 hPa WNW 18.5 km/h 18.5 km/h 66 % 0.0 mm 0.0 W/m2 CLR
23:46 10.7 °C 4.6 °C 1024.6 hPa NW 25.7 km/h 25.7 km/h 66 % 0.0 mm 0.0 W/m2 CLR
23:51 10.8 °C 4.7 °C 1024.6 hPa West 18.5 km/h 18.5 km/h 66 % 0.0 mm 0.0 W/m2 CLR
23:54 10.9 °C 4.6 °C 1024.6 hPa West 18.5 km/h 18.5 km/h 65 % 0.0 mm 0.0 W/m2 CLR
23:59 10.9 °C 4.4 °C 1024.6 hPa WNW 22.2 km/h 22.2 km/h 64 % 0.0 mm 0.0 W/m2 CLR
Lo Temps de Massalio
Compliments of Weather Underground - 1.25 mb